Time;durP1;ratioP1;P1;durP2;ratioP2;P2;SDS_P1;SDS_P2;PMS_P1;PMS_P2;Temp;Humidity;BMP_temperature;BMP_pressure;BME280_temperature;BME280_humidity;BME280_pressure;Samples;Min_cycle;Max_cycle;Signal;HPM_P1;HPM_P2
2023/11/11 00:00:41;;;;;;;;;;;;;;;6.11;100.00;99277.16;5029636;28;20068;-74
2023/11/11 00:03:08;;;;;;;;;;;;;;;6.06;100.00;99270.44;5002202;28;19932;-69
2023/11/11 00:05:35;;;;;;;;;;;;;;;6.04;100.00;99271.50;5031690;28;20003;-71
2023/11/11 00:08:02;;;;;;;;;;;;;;;6.00;100.00;99276.06;5032312;28;19933;-69
2023/11/11 00:10:29;;;;;;;;;;;;;;;5.99;100.00;99274.38;5012076;28;19980;-69
2023/11/11 00:12:57;;;;;;;;;;;;;;;5.98;100.00;99270.06;5032502;28;19964;-74
2023/11/11 00:15:25;;;;;;;;;;;;;;;5.99;100.00;99269.16;5013780;28;19987;-71
2023/11/11 00:17:52;;;;;;;;;;;;;;;5.99;100.00;99266.56;5030843;28;20352;-69
2023/11/11 00:20:21;;;;;;;;;;;;;;;5.95;100.00;99262.44;5034014;28;19929;-69
2023/11/11 00:22:52;;;;;;;;;;;;;;;5.97;100.00;99251.88;5034610;28;19932;-69
2023/11/11 00:25:20;;;;;;;;;;;;;;;6.01;100.00;99256.00;5028889;28;19971;-65
2023/11/11 00:27:47;;;;;;;;;;;;;;;6.04;100.00;99255.81;5017364;28;19924;-66
2023/11/11 00:30:16;;;;;;;;;;;;;;;6.04;100.00;99255.81;5033751;28;19933;-69
2023/11/11 00:32:46;;;;;;;;;;;;;;;6.05;100.00;99253.09;5032615;28;19937;-70
2023/11/11 00:35:13;;;;;;;;;;;;;;;6.08;100.00;99241.63;5032647;28;19964;-71
2023/11/11 00:37:40;;;;;;;;;;;;;;;6.11;100.00;99243.19;5029975;28;19929;-70
2023/11/11 00:40:07;;;;;;;;;;;;;;;6.11;100.00;99240.59;4997725;28;19932;-70
2023/11/11 00:42:34;;;;;;;;;;;;;;;6.09;100.00;99244.13;5029448;28;20444;-70
2023/11/11 00:45:02;;;;;;;;;;;;;;;6.12;100.00;99248.31;5032428;28;20433;-72
2023/11/11 00:47:29;;;;;;;;;;;;;;;6.12;100.00;99239.63;5029484;28;20395;-69
2023/11/11 00:49:56;;;;;;;;;;;;;;;6.13;100.00;99250.00;5029469;28;20362;-67
2023/11/11 00:52:24;;;;;;;;;;;;;;;6.12;100.00;99243.09;5035360;28;20462;-70
2023/11/11 00:54:52;;;;;;;;;;;;;;;6.13;100.00;99244.78;5031179;28;20020;-68
2023/11/11 00:57:19;;;;;;;;;;;;;;;6.09;100.00;99235.47;5031342;28;19960;-68
2023/11/11 00:59:46;;;;;;;;;;;;;;;6.06;100.00;99236.47;5034729;28;19925;-70
2023/11/11 01:02:13;;;;;;;;;;;;;;;6.06;100.00;99238.25;5029471;28;20504;-68
2023/11/11 01:04:40;;;;;;;;;;;;;;;5.99;100.00;99236.94;5030670;28;20316;-71
2023/11/11 01:07:07;;;;;;;;;;;;;;;6.01;100.00;99245.53;5033398;28;19979;-65
2023/11/11 01:09:34;;;;;;;;;;;;;;;6.01;100.00;99240.31;5029219;28;19925;-70
2023/11/11 01:12:02;;;;;;;;;;;;;;;5.99;100.00;99239.56;5029800;28;19999;-79
2023/11/11 01:14:30;;;;;;;;;;;;;;;5.95;100.00;99241.53;5014981;28;19925;-64
2023/11/11 01:16:57;;;;;;;;;;;;;;;5.93;100.00;99243.41;5030882;28;19951;-67
2023/11/11 01:19:25;;;;;;;;;;;;;;;5.88;100.00;99242.81;5032795;28;20402;-72
2023/11/11 01:21:52;;;;;;;;;;;;;;;5.83;100.00;99240.47;5034705;28;19951;-66
2023/11/11 01:24:20;;;;;;;;;;;;;;;5.79;100.00;99240.78;5012923;28;20294;-74
2023/11/11 01:26:47;;;;;;;;;;;;;;;5.73;100.00;99246.38;5032538;28;19925;-69
2023/11/11 01:29:14;;;;;;;;;;;;;;;5.67;100.00;99250.19;5033425;28;19975;-68
2023/11/11 01:31:41;;;;;;;;;;;;;;;5.61;100.00;99239.28;5014568;28;19933;-68
2023/11/11 01:34:08;;;;;;;;;;;;;;;5.60;100.00;99241.06;5031250;28;20399;-68
2023/11/11 01:36:36;;;;;;;;;;;;;;;5.56;100.00;99237.78;5033453;28;19933;-69
2023/11/11 01:39:04;;;;;;;;;;;;;;;5.53;100.00;99239.72;5029485;28;19979;-69
2023/11/11 01:41:32;;;;;;;;;;;;;;;5.48;100.00;99237.41;5024465;28;19943;-68
2023/11/11 01:43:59;;;;;;;;;;;;;;;5.44;100.00;99243.72;5030888;28;19965;-68
2023/11/11 01:46:26;;;;;;;;;;;;;;;5.42;100.00;99234.34;5013102;28;19929;-66
2023/11/11 01:48:53;;;;;;;;;;;;;;;5.37;100.00;99234.59;5028239;28;20025;-66
2023/11/11 01:51:21;;;;;;;;;;;;;;;5.33;100.00;99236.56;5012165;28;19979;-72
2023/11/11 01:53:48;;;;;;;;;;;;;;;5.26;100.00;99227.41;5030469;28;19929;-72
2023/11/11 01:56:16;;;;;;;;;;;;;;;5.22;100.00;99223.31;5028179;28;20454;-76
2023/11/11 01:58:43;;;;;;;;;;;;;;;5.21;100.00;99223.41;4997891;28;19971;-69
2023/11/11 02:01:11;;;;;;;;;;;;;;;5.19;100.00;99222.66;5029106;28;19925;-80
2023/11/11 02:03:38;;;;;;;;;;;;;;;5.18;100.00;99220.97;5028199;28;19995;-71
2023/11/11 02:06:07;;;;;;;;;;;;;;;5.16;100.00;99218.44;4998953;28;19960;-73
2023/11/11 02:08:34;;;;;;;;;;;;;;;5.14;100.00;99211.66;5031383;28;20271;-69
2023/11/11 02:11:04;;;;;;;;;;;;;;;5.08;100.00;99216.28;5030196;28;20347;-78
2023/11/11 02:13:35;;;;;;;;;;;;;;;5.06;100.00;99215.56;5014334;28;19984;-65
2023/11/11 02:16:03;;;;;;;;;;;;;;;5.03;100.00;99204.44;5010905;28;20016;-67
2023/11/11 02:18:31;;;;;;;;;;;;;;;4.98;100.00;99209.09;5027737;28;20015;-72
2023/11/11 02:20:58;;;;;;;;;;;;;;;4.95;100.00;99204.88;5028768;28;19948;-74
2023/11/11 02:23:35;;;;;;;;;;;;;;;4.95;100.00;99211.88;5033843;28;20008;-68
2023/11/11 02:26:02;;;;;;;;;;;;;;;4.92;100.00;99209.47;5025047;28;20016;-71
2023/11/11 02:28:30;;;;;;;;;;;;;;;4.91;100.00;99212.97;5032955;28;19928;-73
2023/11/11 02:30:57;;;;;;;;;;;;;;;4.91;100.00;99210.38;5015775;28;19994;-74
2023/11/11 02:33:24;;;;;;;;;;;;;;;4.89;100.00;99214.84;4996439;28;19925;-69
2023/11/11 02:35:52;;;;;;;;;;;;;;;4.87;100.00;99203.69;5033478;28;20294;-69
2023/11/11 02:38:20;;;;;;;;;;;;;;;4.84;100.00;99207.31;5012744;28;19964;-68
2023/11/11 02:40:47;;;;;;;;;;;;;;;4.82;100.00;99211.78;5028676;28;19925;-74
2023/11/11 02:43:15;;;;;;;;;;;;;;;4.78;100.00;99205.91;5028522;28;20010;-73
2023/11/11 02:45:43;;;;;;;;;;;;;;;4.75;100.00;99213.03;5026821;28;19985;-75
2023/11/11 02:48:10;;;;;;;;;;;;;;;4.73;100.00;99201.88;5025599;28;19932;-71
2023/11/11 02:50:38;;;;;;;;;;;;;;;4.69;100.00;99193.38;5026451;28;19925;-65
2023/11/11 02:53:05;;;;;;;;;;;;;;;4.66;100.00;99196.16;5032122;28;20517;-72
2023/11/11 02:55:32;;;;;;;;;;;;;;;4.64;100.00;99197.16;5028808;28;20032;-68
2023/11/11 02:57:59;;;;;;;;;;;;;;;4.62;100.00;99193.81;5030531;28;19982;-74
2023/11/11 03:00:28;;;;;;;;;;;;;;;4.60;100.00;99196.53;5030155;28;19925;-70
2023/11/11 03:02:55;;;;;;;;;;;;;;;4.57;100.00;99199.28;5029546;28;20002;-75
2023/11/11 03:05:23;;;;;;;;;;;;;;;4.56;100.00;99198.47;5026344;28;19984;-69
2023/11/11 03:07:50;;;;;;;;;;;;;;;4.55;100.00;99193.34;5030207;28;19925;-67
2023/11/11 03:10:17;;;;;;;;;;;;;;;4.53;100.00;99197.78;5030459;28;19960;-68
2023/11/11 03:12:44;;;;;;;;;;;;;;;4.52;100.00;99189.13;5027463;28;20331;-69
2023/11/11 03:15:11;;;;;;;;;;;;;;;4.51;100.00;99190.06;5032040;28;20041;-67
2023/11/11 03:17:38;;;;;;;;;;;;;;;4.51;100.00;99192.69;5026461;28;19967;-70
2023/11/11 03:20:05;;;;;;;;;;;;;;;4.49;100.00;99194.50;5032380;28;19991;-71
2023/11/11 03:22:33;;;;;;;;;;;;;;;4.49;100.00;99194.50;5014751;28;19933;-68
2023/11/11 03:25:00;;;;;;;;;;;;;;;4.48;100.00;99203.25;5018088;28;19925;-69
2023/11/11 03:27:28;;;;;;;;;;;;;;;4.46;100.00;99194.72;5031327;28;19924;-70
2023/11/11 03:29:55;;;;;;;;;;;;;;;4.45;100.00;99193.00;5028873;28;19979;-69
2023/11/11 03:32:22;;;;;;;;;;;;;;;4.44;100.00;99188.72;5029467;28;19933;-68
2023/11/11 03:34:49;;;;;;;;;;;;;;;4.42;100.00;99177.56;5028748;28;20349;-69
2023/11/11 03:37:17;;;;;;;;;;;;;;;4.41;100.00;99182.84;5012876;28;19925;-66
2023/11/11 03:39:44;;;;;;;;;;;;;;;4.40;100.00;99181.16;5000014;28;19987;-73
2023/11/11 03:42:11;;;;;;;;;;;;;;;4.37;100.00;99179.59;5011267;28;20456;-72
2023/11/11 03:44:39;;;;;;;;;;;;;;;4.33;100.00;99180.69;5027201;28;20344;-67
2023/11/11 03:47:06;;;;;;;;;;;;;;;4.30;100.00;99189.50;4995858;28;19960;-76
2023/11/11 03:49:33;;;;;;;;;;;;;;;4.28;100.00;99191.38;5007827;28;19926;-70
2023/11/11 03:52:00;;;;;;;;;;;;;;;4.26;100.00;99187.16;5028837;28;20108;-69
2023/11/11 03:54:27;;;;;;;;;;;;;;;4.24;100.00;99189.03;5030219;28;19933;-74
2023/11/11 03:56:54;;;;;;;;;;;;;;;4.26;100.00;99192.38;5030379;28;19929;-67
2023/11/11 03:59:21;;;;;;;;;;;;;;;4.28;100.00;99193.13;5012300;28;20380;-71
2023/11/11 04:01:51;;;;;;;;;;;;;;;4.31;100.00;99190.34;5011621;28;19925;-69
2023/11/11 04:04:19;;;;;;;;;;;;;;;4.32;100.00;99186.81;5024116;28;19929;-68
2023/11/11 04:06:46;;;;;;;;;;;;;;;4.35;100.00;99191.84;5012625;28;19932;-69
2023/11/11 04:09:14;;;;;;;;;;;;;;;4.38;100.00;99189.09;5012261;28;19971;-68
2023/11/11 04:11:41;;;;;;;;;;;;;;;4.44;100.00;99185.28;4993086;28;19925;-67
2023/11/11 04:14:08;;;;;;;;;;;;;;;4.46;100.00;99189.50;5029560;28;19992;-70
2023/11/11 04:16:35;;;;;;;;;;;;;;;4.51;100.00;99177.03;5025911;28;20825;-68
2023/11/11 04:19:03;;;;;;;;;;;;;;;4.56;100.00;99177.63;5024877;28;19960;-69
2023/11/11 04:21:30;;;;;;;;;;;;;;;4.58;100.00;99177.50;5012315;28;19925;-70
2023/11/11 04:23:58;;;;;;;;;;;;;;;4.63;100.00;99185.06;5028646;28;20070;-68
2023/11/11 04:26:25;;;;;;;;;;;;;;;4.65;100.00;99184.06;5010819;28;19925;-66
2023/11/11 04:28:53;;;;;;;;;;;;;;;4.68;100.00;99183.88;5030070;28;20024;-70
2023/11/11 04:31:20;;;;;;;;;;;;;;;4.74;100.00;99182.69;5031234;28;20054;-68
2023/11/11 04:33:48;;;;;;;;;;;;;;;4.78;100.00;99186.81;5011534;28;20661;-65
2023/11/11 04:36:15;;;;;;;;;;;;;;;4.80;100.00;99193.59;5029985;28;20371;-71
2023/11/11 04:38:44;;;;;;;;;;;;;;;4.79;100.00;99188.47;5016805;28;20407;-67
2023/11/11 04:41:13;;;;;;;;;;;;;;;4.82;100.00;99188.31;5030660;28;19971;-67
2023/11/11 04:43:40;;;;;;;;;;;;;;;4.86;100.00;99189.78;5012188;28;20364;-68
2023/11/11 04:46:07;;;;;;;;;;;;;;;4.88;100.00;99193.16;5013665;28;19972;-70
2023/11/11 04:48:34;;;;;;;;;;;;;;;4.90;100.00;99199.09;5035714;28;19976;-67
2023/11/11 04:51:01;;;;;;;;;;;;;;;4.91;100.00;99193.00;5030068;28;19979;-69
2023/11/11 04:53:28;;;;;;;;;;;;;;;4.93;100.00;99198.94;5029607;28;19960;-68
2023/11/11 04:55:55;;;;;;;;;;;;;;;4.93;100.00;99198.94;5032018;28;19925;-67
2023/11/11 04:58:24;;;;;;;;;;;;;;;4.96;100.00;99200.53;5032369;28;20042;-67
2023/11/11 05:00:51;;;;;;;;;;;;;;;4.95;100.00;99201.44;5030467;28;19925;-68
2023/11/11 05:03:19;;;;;;;;;;;;;;;4.93;100.00;99203.31;5038256;28;19933;-67
2023/11/11 05:05:47;;;;;;;;;;;;;;;4.94;100.00;99210.22;5029460;28;19960;-66
2023/11/11 05:08:14;;;;;;;;;;;;;;;4.91;100.00;99207.78;5028776;28;19925;-67
2023/11/11 05:10:42;;;;;;;;;;;;;;;4.88;100.00;99214.03;5030265;28;19987;-71
2023/11/11 05:13:09;;;;;;;;;;;;;;;4.84;100.00;99217.72;5033983;28;19925;-70
2023/11/11 05:15:42;;;;;;;;;;;;;;;4.82;100.00;99210.00;4998741;28;20323;-68
2023/11/11 05:18:10;;;;;;;;;;;;;;;4.82;100.00;99215.22;5014131;28;19925;-67
2023/11/11 05:20:41;;;;;;;;;;;;;;;4.82;100.00;99203.94;5027247;28;19983;-72
2023/11/11 05:23:11;;;;;;;;;;;;;;;4.86;100.00;99217.63;5013058;28;20033;-71
2023/11/11 05:25:38;;;;;;;;;;;;;;;4.85;100.00;99214.19;5013208;28;20285;-70
2023/11/11 05:28:06;;;;;;;;;;;;;;;4.85;100.00;99211.56;4997871;28;19932;-68
2023/11/11 05:30:33;;;;;;;;;;;;;;;4.85;100.00;99210.75;5028693;28;20012;-70
2023/11/11 05:33:00;;;;;;;;;;;;;;;4.83;100.00;99213.44;5028742;28;19925;-69
2023/11/11 05:35:27;;;;;;;;;;;;;;;4.80;100.00;99221.44;5002711;28;19968;-64
2023/11/11 05:37:54;;;;;;;;;;;;;;;4.76;100.00;99218.16;5012810;28;20028;-70
2023/11/11 05:40:21;;;;;;;;;;;;;;;4.76;100.00;99223.38;5014192;28;19971;-69
2023/11/11 05:42:48;;;;;;;;;;;;;;;4.73;100.00;99212.31;5025855;28;20487;-71
2023/11/11 05:45:17;;;;;;;;;;;;;;;4.75;100.00;99215.66;5031639;28;19975;-69
2023/11/11 05:47:44;;;;;;;;;;;;;;;4.75;100.00;99220.88;5031176;28;19933;-71
2023/11/11 05:50:13;;;;;;;;;;;;;;;4.78;100.00;99226.75;5028435;28;20280;-72
2023/11/11 05:52:41;;;;;;;;;;;;;;;4.77;100.00;99221.59;5011540;28;19941;-69
2023/11/11 05:55:08;;;;;;;;;;;;;;;4.77;100.00;99227.69;5011993;28;20055;-68
2023/11/11 05:57:37;;;;;;;;;;;;;;;4.78;100.00;99228.53;5016991;28;19971;-70
2023/11/11 06:00:07;;;;;;;;;;;;;;;4.79;100.00;99223.22;5023879;28;19968;-70
2023/11/11 06:02:34;;;;;;;;;;;;;;;4.79;100.00;99227.59;5015450;28;19929;-70
2023/11/11 06:05:02;;;;;;;;;;;;;;;4.80;100.00;99224.88;5029587;28;20412;-67
2023/11/11 06:07:29;;;;;;;;;;;;;;;4.80;100.00;99227.50;5030010;28;20015;-69
2023/11/11 06:09:57;;;;;;;;;;;;;;;4.81;100.00;99239.59;5031344;28;19983;-69
2023/11/11 06:12:24;;;;;;;;;;;;;;;4.83;100.00;99234.31;5037728;28;19990;-67
2023/11/11 06:14:51;;;;;;;;;;;;;;;4.86;100.00;99239.31;5012394;28;19968;-69
2023/11/11 06:17:18;;;;;;;;;;;;;;;4.87;100.00;99242.81;5009375;28;19956;-69
2023/11/11 06:19:45;;;;;;;;;;;;;;;4.87;100.00;99240.19;5012043;28;19979;-66
2023/11/11 06:22:12;;;;;;;;;;;;;;;4.91;100.00;99237.31;5026948;28;20405;-69
2023/11/11 06:24:39;;;;;;;;;;;;;;;4.91;100.00;99246.88;5022513;28;19925;-69
2023/11/11 06:27:09;;;;;;;;;;;;;;;4.88;100.00;99258.34;5030496;28;20471;-71
2023/11/11 06:29:36;;;;;;;;;;;;;;;4.83;100.00;99250.78;5027039;28;19932;-70
2023/11/11 06:32:04;;;;;;;;;;;;;;;4.79;100.00;99251.06;5028413;28;19972;-68
2023/11/11 06:34:31;;;;;;;;;;;;;;;4.73;100.00;99244.44;5027035;28;20300;-66
2023/11/11 06:36:58;;;;;;;;;;;;;;;4.68;100.00;99256.03;5027987;28;20011;-69
2023/11/11 06:39:30;;;;;;;;;;;;;;;4.65;100.00;99258.81;5034190;28;20019;-69
2023/11/11 06:41:58;;;;;;;;;;;;;;;4.58;100.00;99266.13;5024662;28;19925;-69
2023/11/11 06:44:25;;;;;;;;;;;;;;;4.56;100.00;99266.22;5012673;28;19965;-65
2023/11/11 06:46:52;;;;;;;;;;;;;;;4.50;100.00;99258.75;5026743;28;19925;-69
2023/11/11 06:49:20;;;;;;;;;;;;;;;4.45;100.00;99265.13;5027047;28;19925;-67
2023/11/11 06:51:47;;;;;;;;;;;;;;;4.42;100.00;99262.72;4994051;28;20538;-67
2023/11/11 06:54:14;;;;;;;;;;;;;;;4.39;100.00;99262.88;5022111;28;19979;-63
2023/11/11 06:56:41;;;;;;;;;;;;;;;4.39;100.00;99274.13;5028670;28;19934;-68
2023/11/11 06:59:08;;;;;;;;;;;;;;;4.41;100.00;99276.66;5029203;28;19925;-70
2023/11/11 07:01:37;;;;;;;;;;;;;;;4.43;100.00;99277.41;5028788;28;19932;-65
2023/11/11 07:04:04;;;;;;;;;;;;;;;4.46;100.00;99278.09;5007421;28;19932;-69
2023/11/11 07:06:32;;;;;;;;;;;;;;;4.47;100.00;99265.91;5025851;28;19933;-66
2023/11/11 07:08:59;;;;;;;;;;;;;;;4.49;100.00;99266.63;5024757;28;20040;-68
2023/11/11 07:11:27;;;;;;;;;;;;;;;4.50;100.00;99270.91;5030949;28;19960;-62
2023/11/11 07:13:55;;;;;;;;;;;;;;;4.57;100.00;99270.50;5012194;28;20265;-70
2023/11/11 07:16:22;;;;;;;;;;;;;;;4.66;100.00;99278.75;5023832;28;19975;-67
2023/11/11 07:18:49;;;;;;;;;;;;;;;4.76;100.00;99270.31;5008778;28;19935;-66
2023/11/11 07:21:24;;;;;;;;;;;;;;;4.90;100.00;99261.69;5025167;28;20020;-68
2023/11/11 07:23:52;;;;;;;;;;;;;;;5.01;100.00;99264.53;5023152;28;19929;-69
2023/11/11 07:26:20;;;;;;;;;;;;;;;5.01;100.00;99274.13;5043616;28;19943;-69
2023/11/11 07:28:48;;;;;;;;;;;;;;;5.15;100.00;99271.56;5026503;28;20041;-71
2023/11/11 07:31:16;;;;;;;;;;;;;;;5.16;100.00;99278.44;5011392;28;19929;-75
2023/11/11 07:33:43;;;;;;;;;;;;;;;5.23;100.00;99286.78;5024145;28;20391;-69
2023/11/11 07:36:11;;;;;;;;;;;;;;;5.34;100.00;99281.75;5008642;28;20355;-75
2023/11/11 07:38:39;;;;;;;;;;;;;;;5.39;100.00;99286.69;5026940;28;19925;-72
2023/11/11 07:41:07;;;;;;;;;;;;;;;5.34;100.00;99279.97;5009621;28;20032;-74
2023/11/11 07:43:34;;;;;;;;;;;;;;;5.36;100.00;99277.31;5007059;28;21567;-72
2023/11/11 07:46:06;;;;;;;;;;;;;;;5.42;100.00;99283.91;5026185;28;19931;-70
2023/11/11 07:48:35;;;;;;;;;;;;;;;5.40;100.00;99281.38;5009737;28;19940;-71
2023/11/11 07:51:04;;;;;;;;;;;;;;;5.44;100.00;99282.88;5022385;28;19960;-69
2023/11/11 07:53:31;;;;;;;;;;;;;;;5.56;100.00;99297.00;5026135;28;19929;-70
2023/11/11 07:56:02;;;;;;;;;;;;;;;5.62;100.00;99288.78;5026670;28;20011;-69
2023/11/11 07:58:29;;;;;;;;;;;;;;;5.69;100.00;99287.50;5026443;28;20020;-69
2023/11/11 08:01:03;;;;;;;;;;;;;;;5.80;100.00;99297.28;5027493;28;20009;-67
2023/11/11 08:03:33;;;;;;;;;;;;;;;5.86;100.00;99293.47;5022249;28;19987;-70
2023/11/11 08:06:00;;;;;;;;;;;;;;;5.96;100.00;99287.63;5026670;28;19972;-71
2023/11/11 08:08:29;;;;;;;;;;;;;;;5.99;100.00;99292.66;5029795;28;19971;-71
2023/11/11 08:10:56;;;;;;;;;;;;;;;6.16;100.00;99293.38;5032170;28;19933;-72
2023/11/11 08:13:24;;;;;;;;;;;;;;;6.27;100.00;99294.41;5029333;28;20219;-66
2023/11/11 08:15:52;;;;;;;;;;;;;;;6.37;100.00;99289.44;5027348;28;20029;-67
2023/11/11 08:18:20;;;;;;;;;;;;;;;6.41;100.00;99295.31;5029328;28;20315;-65
2023/11/11 08:20:48;;;;;;;;;;;;;;;6.48;100.00;99296.59;5024295;28;19979;-65
2023/11/11 08:23:15;;;;;;;;;;;;;;;6.53;100.00;99305.00;5034263;28;19936;-65
2023/11/11 08:25:42;;;;;;;;;;;;;;;6.63;100.00;99313.09;5034503;28;19929;-66
2023/11/11 08:28:10;;;;;;;;;;;;;;;6.51;100.00;99322.56;5024359;28;20038;-70
2023/11/11 08:30:37;;;;;;;;;;;;;;;6.62;100.00;99314.03;5028372;28;20012;-68
2023/11/11 08:33:04;;;;;;;;;;;;;;;6.62;99.28;99319.25;5031920;28;19985;-68
2023/11/11 08:35:32;;;;;;;;;;;;;;;6.68;99.52;99314.47;5019143;28;20446;-65
2023/11/11 08:38:00;;;;;;;;;;;;;;;6.78;99.17;99319.97;5023188;28;20436;-65
2023/11/11 08:40:27;;;;;;;;;;;;;;;6.73;98.55;99311.56;5029290;28;20025;-64
2023/11/11 08:42:54;;;;;;;;;;;;;;;6.83;98.50;99310.03;5030813;28;20019;-65
2023/11/11 08:45:22;;;;;;;;;;;;;;;6.90;98.62;99320.97;5022323;28;19965;-63
2023/11/11 08:47:50;;;;;;;;;;;;;;;6.92;97.33;99321.69;5030358;28;20230;-63
2023/11/11 08:50:19;;;;;;;;;;;;;;;6.96;97.32;99320.56;5011922;28;19959;-65
2023/11/11 08:52:46;;;;;;;;;;;;;;;6.99;97.06;99325.59;5035573;28;19956;-67
2023/11/11 08:55:13;;;;;;;;;;;;;;;7.11;97.69;99327.41;5022673;28;20003;-65
2023/11/11 08:57:40;;;;;;;;;;;;;;;7.02;95.96;99328.84;5031933;28;20011;-64
2023/11/11 09:00:12;;;;;;;;;;;;;;;7.06;96.32;99327.69;5029512;28;20020;-65
2023/11/11 09:02:39;;;;;;;;;;;;;;;7.16;96.02;99329.72;5030564;28;19965;-66
2023/11/11 09:05:06;;;;;;;;;;;;;;;7.26;96.63;99325.56;5028953;28;19933;-68
2023/11/11 09:07:36;;;;;;;;;;;;;;;7.25;95.29;99332.59;5029338;28;19996;-65
2023/11/11 09:10:03;;;;;;;;;;;;;;;7.24;95.03;99330.06;5031941;28;20012;-68
2023/11/11 09:12:31;;;;;;;;;;;;;;;7.27;94.88;99324.63;5010293;28;20001;-67
2023/11/11 09:14:59;;;;;;;;;;;;;;;7.30;95.55;99321.81;5012090;28;19925;-66
2023/11/11 09:17:26;;;;;;;;;;;;;;;7.34;95.62;99326.75;5026886;28;20028;-66
2023/11/11 09:19:53;;;;;;;;;;;;;;;7.46;95.97;99327.69;5030616;28;19941;-66
2023/11/11 09:22:20;;;;;;;;;;;;;;;7.58;96.55;99332.13;5024778;28;20014;-62
2023/11/11 09:24:47;;;;;;;;;;;;;;;7.74;95.61;99329.28;5033203;28;19952;-66
2023/11/11 09:27:16;;;;;;;;;;;;;;;7.93;93.63;99325.44;5031483;28;19936;-69
2023/11/11 09:29:43;;;;;;;;;;;;;;;8.19;93.62;99328.84;5023434;28;19974;-65
2023/11/11 09:32:11;;;;;;;;;;;;;;;8.41;92.37;99325.59;5030988;28;20009;-64
2023/11/11 09:34:42;;;;;;;;;;;;;;;8.62;91.55;99318.84;5030038;28;19972;-65
2023/11/11 09:37:10;;;;;;;;;;;;;;;8.82;90.26;99330.50;5025894;28;20031;-66
2023/11/11 09:39:43;;;;;;;;;;;;;;;8.81;90.36;99331.47;5031347;28;19988;-66
2023/11/11 09:42:11;;;;;;;;;;;;;;;8.83;90.34;99330.41;5012101;28;19982;-69
2023/11/11 09:44:39;;;;;;;;;;;;;;;8.96;89.45;99327.75;5021782;28;19971;-66
2023/11/11 09:47:12;;;;;;;;;;;;;;;9.00;88.93;99325.72;5028610;28;19925;-64
2023/11/11 09:49:40;;;;;;;;;;;;;;;9.17;88.45;99320.06;5015311;28;19929;-64
2023/11/11 09:52:11;;;;;;;;;;;;;;;9.28;87.33;99320.13;5029022;28;20007;-63
2023/11/11 09:54:40;;;;;;;;;;;;;;;9.13;86.42;99322.06;5029467;28;19978;-68
2023/11/11 09:57:10;;;;;;;;;;;;;;;9.22;85.37;99317.94;5012396;28;20016;-64
2023/11/11 09:59:38;;;;;;;;;;;;;;;9.19;85.71;99323.44;5029380;28;19999;-67
2023/11/11 10:02:06;;;;;;;;;;;;;;;9.22;85.08;99333.69;5016483;28;19960;-65
2023/11/11 10:04:34;;;;;;;;;;;;;;;9.13;85.12;99329.94;4997854;28;19933;-62
2023/11/11 10:07:02;;;;;;;;;;;;;;;9.02;84.66;99327.28;5020996;28;20379;-65
2023/11/11 10:09:29;;;;;;;;;;;;;;;8.73;84.98;99329.38;5018126;28;20383;-67
2023/11/11 10:11:56;;;;;;;;;;;;;;;8.63;86.54;99329.22;4990600;28;20392;-67
2023/11/11 10:14:23;;;;;;;;;;;;;;;8.65;86.73;99326.50;5021307;28;19983;-66
2023/11/11 10:16:54;;;;;;;;;;;;;;;8.83;85.82;99327.78;5004583;28;19960;-70
2023/11/11 10:19:22;;;;;;;;;;;;;;;9.04;85.40;99335.03;5018697;28;19964;-66
2023/11/11 10:21:54;;;;;;;;;;;;;;;8.99;84.78;99332.75;5017810;28;20308;-66
2023/11/11 10:24:22;;;;;;;;;;;;;;;9.03;84.18;99328.94;5027926;28;19929;-67
2023/11/11 10:26:48;;;;;;;;;;;;;;;9.08;84.26;99329.44;5019874;28;19924;-65
2023/11/11 10:29:16;;;;;;;;;;;;;;;9.22;84.27;99320.56;5025135;28;20323;-63
2023/11/11 10:31:46;;;;;;;;;;;;;;;9.42;84.43;99321.72;5027468;28;19925;-65
2023/11/11 10:34:14;;;;;;;;;;;;;;;9.57;83.43;99323.19;5023859;28;19932;-67
2023/11/11 10:36:42;;;;;;;;;;;;;;;9.73;83.23;99325.50;5021690;28;20020;-64
2023/11/11 10:39:10;;;;;;;;;;;;;;;9.94;82.38;99330.88;5027518;28;19952;-65
2023/11/11 10:41:38;;;;;;;;;;;;;;;10.12;82.19;99329.47;5032819;28;19936;-64
2023/11/11 10:44:07;;;;;;;;;;;;;;;10.21;80.42;99332.34;5026082;28;20303;-67
2023/11/11 10:46:36;;;;;;;;;;;;;;;10.03;78.72;99334.59;5026431;28;19987;-67
2023/11/11 10:49:04;;;;;;;;;;;;;;;9.96;80.20;99333.41;4999414;28;19979;-65
2023/11/11 10:51:31;;;;;;;;;;;;;;;10.07;80.47;99341.28;5022314;28;19964;-70
2023/11/11 10:53:59;;;;;;;;;;;;;;;9.89;79.02;99339.13;5024594;28;19939;-69
2023/11/11 10:56:27;;;;;;;;;;;;;;;9.78;80.29;99336.50;5013886;28;19976;-69
2023/11/11 10:58:54;;;;;;;;;;;;;;;9.81;80.28;99333.59;5024546;28;20033;-69
2023/11/11 11:01:21;;;;;;;;;;;;;;;9.50;80.36;99337.75;5016074;28;19965;-66
2023/11/11 11:03:48;;;;;;;;;;;;;;;9.43;81.02;99331.25;5022208;28;19925;-66
2023/11/11 11:06:17;;;;;;;;;;;;;;;9.51;81.60;99328.91;5030299;28;20020;-68
2023/11/11 11:09:04;;;;;;;;;;;;;;;9.79;80.79;99332.91;5030428;28;19925;-65
2023/11/11 11:11:34;;;;;;;;;;;;;;;9.95;80.47;99337.84;5041684;28;20007;-64
2023/11/11 11:14:07;;;;;;;;;;;;;;;10.02;79.53;99333.75;5031405;28;20414;-67
2023/11/11 11:16:34;;;;;;;;;;;;;;;10.21;79.35;99341.06;5026661;28;19929;-65
2023/11/11 11:19:01;;;;;;;;;;;;;;;10.14;78.82;99338.09;5026264;28;19926;-64
2023/11/11 11:21:28;;;;;;;;;;;;;;;10.18;79.18;99338.69;5025804;28;19929;-69
2023/11/11 11:23:56;;;;;;;;;;;;;;;10.38;78.78;99339.78;5024035;28;20012;-67
2023/11/11 11:26:29;;;;;;;;;;;;;;;10.44;79.13;99339.28;5024400;28;19929;-66
2023/11/11 11:29:08;;;;;;;;;;;;;;;10.45;78.06;99340.97;5021596;28;20040;-68
2023/11/11 11:31:54;;;;;;;;;;;;;;;10.28;77.87;99346.72;5041794;28;20002;-64
2023/11/11 11:34:21;;;;;;;;;;;;;;;10.41;78.11;99342.19;5010259;28;19925;-65
2023/11/11 11:36:54;;;;;;;;;;;;;;;10.41;77.66;99336.91;5028732;28;20020;-65
2023/11/11 11:39:24;;;;;;;;;;;;;;;10.57;77.28;99347.88;5009986;28;19960;-65
2023/11/11 11:41:54;;;;;;;;;;;;;;;10.56;76.78;99348.00;5033272;28;20240;-63
2023/11/11 11:44:21;;;;;;;;;;;;;;;10.39;76.99;99350.16;5026468;28;19933;-64
2023/11/11 11:46:48;;;;;;;;;;;;;;;10.13;78.08;99346.94;5029577;28;19925;-65
2023/11/11 11:49:15;;;;;;;;;;;;;;;9.84;79.25;99346.53;5012113;28;19925;-69
2023/11/11 11:51:52;;;;;;;;;;;;;;;9.83;79.71;99354.53;5031488;28;19929;-70
2023/11/11 11:54:19;;;;;;;;;;;;;;;9.86;79.85;99349.03;5016040;28;19951;-65
2023/11/11 11:56:46;;;;;;;;;;;;;;;9.87;80.04;99346.31;5021059;28;19987;-66
2023/11/11 11:59:15;;;;;;;;;;;;;;;9.57;81.21;99348.63;5026035;28;19929;-64
2023/11/11 12:01:42;;;;;;;;;;;;;;;9.63;81.55;99346.34;5022445;28;20473;-66
2023/11/11 12:04:10;;;;;;;;;;;;;;;9.86;80.95;99344.63;5017380;28;20024;-69
2023/11/11 12:06:38;;;;;;;;;;;;;;;10.61;78.18;99345.84;5025451;28;20560;-66
2023/11/11 12:09:09;;;;;;;;;;;;;;;11.57;77.20;99345.03;5021843;28;20020;-65
2023/11/11 12:11:37;;;;;;;;;;;;;;;12.29;73.04;99349.50;5012289;28;19932;-63
2023/11/11 12:14:05;;;;;;;;;;;;;;;11.78;72.51;99352.97;5015334;28;20343;-67
2023/11/11 12:16:39;;;;;;;;;;;;;;;12.01;72.70;99349.25;5030298;28;19968;-65
2023/11/11 12:19:09;;;;;;;;;;;;;;;12.34;72.30;99344.69;5040488;28;19967;-66
2023/11/11 12:21:42;;;;;;;;;;;;;;;12.73;71.86;99353.56;5021767;28;19957;-62
2023/11/11 12:24:14;;;;;;;;;;;;;;;13.50;65.21;99339.63;5023642;28;19963;-62
2023/11/11 12:26:44;;;;;;;;;;;;;;;15.95;58.11;99348.63;5034692;28;19925;-67
2023/11/11 12:29:11;;;;;;;;;;;;;;;17.52;52.98;99359.69;5014512;28;19933;-71
2023/11/11 12:31:45;;;;;;;;;;;;;;;17.71;50.41;99361.16;5028299;28;19941;-67
2023/11/11 12:34:12;;;;;;;;;;;;;;;17.76;50.44;99355.38;5035538;28;19947;-66
2023/11/11 12:36:39;;;;;;;;;;;;;;;17.49;51.75;99361.81;5023438;28;19991;-68
2023/11/11 12:39:09;;;;;;;;;;;;;;;16.03;53.77;99354.97;5026467;28;19971;-66
2023/11/11 12:41:39;;;;;;;;;;;;;;;15.53;55.88;99363.50;5033107;28;20013;-62
2023/11/11 12:44:07;;;;;;;;;;;;;;;15.67;55.78;99363.03;5024768;28;20470;-66
2023/11/11 12:46:40;;;;;;;;;;;;;;;16.93;54.51;99364.22;5017529;28;20024;-66
2023/11/11 12:49:10;;;;;;;;;;;;;;;17.07;52.52;99365.44;5029443;28;20466;-65
2023/11/11 12:51:41;;;;;;;;;;;;;;;16.15;53.46;99364.34;5014474;28;19933;-64